Pagina principale
METAR-TAF:

METAR-TAF

Aeroporti :

Kecskemét, Ungheria

latitudine: 46-55N, longitudine: 019-45E, altezza: 113 m

Osservazione

Il bollettino è stato emesso 38 minuti fa, alle 12:15 UTC
Vento 5 kt da ovest/nord-ovest, variando fra ovest/sud-ovest e nord/nord-est
Temperature 27°C
Umidità 39%
Pressione 1016 hPa
Visibilità 10 km o più
nessuna nube inferiore a 1500 m e nessun cumulonembo

METAR: LHKE 171215Z 30005KT 250V030 CAVOK 27/12 Q1016 NOSIG RMK BLU

Ora: 14:53 (12:53 UTC)

Previsione

Il bollettino è stato emesso 1 ora e 38 minuti fa, alle 11:15 UTC
Previsione valida dal 17 alle 12 UTC al 17 alle 21 UTC
Vento 3 kt da direzioni variabili
Visibilità 10 km o più
nessuna nube inferiore a 1500 m e nessun cumulonembo
Temporaneamente
dal 17 alle 12 UTC al 17 alle 17 UTC
Vento 6 kt da ovest/nord-ovest

TAF: LHKE 171115Z 1712/1721 VRB03KT CAVOK TEMPO 1712/1717 30006KT

Osservazioni e previsioni meteorologiche di più di 4000 aeroporti (messaggi METAR e TAF).

Le stazioni disponibili sono rappresentate dai dischi gialli e rossi sulla carta.

Puntare il mouse per vedere il nome della stazione.

Clicca sopra per visualizzare le osservazioni e previsioni meteorologiche.

Per cambiare la mappa : fare clic sui pulsanti verdi con una croce nera per ingrandire, il pulsante verde con un trattino per diminuire, o sulla freccia verde per le mappe adiacenti.


METAR-TAF: